Time,TemperatureF,DewpointF,PressureIn,WindDirection,WindDirectionDegrees,WindSpeedMPH,WindSpeedGustMPH,Humidity,HourlyPrecipIn,Conditions,Clouds,dailyrainin,SoftwareType,DateUTC
2013-04-05 00:00:00,52.3,51.5,30.17,East,90,0.0,0.0,97,0.00,,---,0.00,VWS V14.00,2013-04-05 07:00:00,
2013-04-05 00:30:00,52.5,51.7,30.17,East,90,0.0,0.0,97,0.00,,---,0.00,VWS V14.00,2013-04-05 07:30:00,
2013-04-05 01:00:00,52.8,52.2,30.17,East,90,0.0,0.0,98,0.00,,---,0.00,VWS V14.00,2013-04-05 08:00:00,
2013-04-05 01:30:00,53.0,52.5,30.18,East,90,0.0,0.0,98,0.00,,---,0.00,VWS V14.00,2013-04-05 08:30:00,
2013-04-05 02:00:00,52.9,52.3,30.18,East,90,0.0,2.0,98,0.00,,---,0.00,VWS V14.00,2013-04-05 09:00:00,
2013-04-05 02:30:00,52.9,52.3,30.18,SE,135,0.0,1.0,98,0.00,,---,0.00,VWS V14.00,2013-04-05 09:30:00,
2013-04-05 03:00:00,52.9,52.3,30.17,SE,135,0.0,1.0,98,0.00,,---,0.00,VWS V14.00,2013-04-05 10:00:00,
2013-04-05 03:30:00,52.8,52.2,30.16,SE,135,0.0,0.0,98,0.00,,---,0.00,VWS V14.00,2013-04-05 10:30:00,
2013-04-05 04:00:00,52.6,51.8,30.16,SE,135,0.0,0.0,97,0.00,,---,0.00,VWS V14.00,2013-04-05 11:00:00,
2013-04-05 04:30:00,52.6,52.0,30.16,SE,135,0.0,0.0,98,0.00,,---,0.00,VWS V14.00,2013-04-05 11:30:00,
2013-04-05 05:00:00,52.3,51.8,30.17,SE,135,0.0,1.0,98,0.00,,---,0.00,VWS V14.00,2013-04-05 12:00:00,
2013-04-05 05:30:00,52.4,51.8,30.17,SE,135,0.0,0.0,98,0.00,,---,0.00,VWS V14.00,2013-04-05 12:30:00,
2013-04-05 06:00:00,52.5,52.0,30.17,SE,135,0.0,0.0,98,0.00,,---,0.00,VWS V14.00,2013-04-05 13:00:00,
2013-04-05 06:30:00,52.4,51.8,30.18,SE,135,0.0,0.0,98,0.00,,---,0.00,VWS V14.00,2013-04-05 13:30:00,
2013-04-05 07:00:00,52.2,51.7,30.17,SSE,158,0.0,1.0,98,0.00,,---,0.00,VWS V14.00,2013-04-05 14:00:00,
2013-04-05 07:30:00,51.8,51.3,30.17,SSE,158,0.0,0.0,98,0.00,,---,0.00,VWS V14.00,2013-04-05 14:30:00,
2013-04-05 08:00:00,52.8,52.2,30.18,SSE,158,0.0,0.0,98,0.00,,---,0.00,VWS V14.00,2013-04-05 15:00:00,
2013-04-05 08:30:00,54.1,53.5,30.20,SSW,202,0.0,6.0,98,0.00,,---,0.00,VWS V14.00,2013-04-05 15:30:00,
2013-04-05 09:00:00,54.2,53.7,30.20,SW,225,0.0,5.0,98,0.00,,---,0.00,VWS V14.00,2013-04-05 16:00:00,
2013-04-05 09:30:00,54.2,53.7,30.20,South,180,0.0,3.0,98,0.00,,---,0.00,VWS V14.00,2013-04-05 16:30:00,
2013-04-05 10:00:00,56.3,55.5,30.20,SSE,158,0.0,1.0,97,0.00,,---,0.00,VWS V14.00,2013-04-05 17:00:00,
2013-04-05 10:30:00,58.2,55.3,30.20,SSW,202,0.0,5.0,90,0.00,,---,0.00,VWS V14.00,2013-04-05 17:30:00,
2013-04-05 11:00:00,59.0,52.5,30.21,SSW,202,1.0,8.0,79,0.00,,---,0.00,VWS V14.00,2013-04-05 18:00:00,
2013-04-05 11:30:00,58.6,54.4,30.21,SSW,202,3.0,13.0,86,0.00,,---,0.00,VWS V14.00,2013-04-05 18:30:00,
2013-04-05 12:00:00,59.5,54.7,30.22,SSW,202,3.0,11.0,84,0.00,,---,0.00,VWS V14.00,2013-04-05 19:00:00,
2013-04-05 12:30:00,57.9,53.7,30.22,SW,225,5.0,15.0,86,0.00,,---,0.00,VWS V14.00,2013-04-05 19:30:00,
2013-04-05 13:00:00,58.1,54.6,30.22,SW,225,6.0,18.0,88,0.00,,---,0.00,VWS V14.00,2013-04-05 20:00:00,
2013-04-05 13:30:00,58.5,53.7,30.22,SW,225,7.0,16.0,84,0.00,,---,0.00,VWS V14.00,2013-04-05 20:30:00,
2013-04-05 14:00:00,60.0,53.5,30.19,SSW,202,4.0,16.0,79,0.00,,---,0.00,VWS V14.00,2013-04-05 21:00:00,
2013-04-05 14:30:00,59.1,53.3,30.18,SW,225,2.0,10.0,81,0.00,,---,0.00,VWS V14.00,2013-04-05 21:30:00,
2013-04-05 15:00:00,60.4,53.5,30.19,SW,225,4.0,15.0,78,0.00,,---,0.00,VWS V14.00,2013-04-05 22:00:00,
2013-04-05 15:30:00,59.5,52.3,30.18,SW,225,5.0,16.0,77,0.00,,---,0.00,VWS V14.00,2013-04-05 22:30:00,
2013-04-05 16:00:00,60.4,52.5,30.18,SW,225,4.0,12.0,75,0.00,,---,0.00,VWS V14.00,2013-04-05 23:00:00,
2013-04-05 16:30:00,59.6,52.4,30.17,SW,225,5.0,14.0,77,0.00,,---,0.00,VWS V14.00,2013-04-05 23:30:00,
2013-04-05 17:00:00,59.3,53.1,30.17,SW,225,4.0,14.0,80,0.00,,---,0.00,VWS V14.00,2013-04-06 00:00:00,
2013-04-05 17:30:00,59.3,52.8,30.17,SSW,202,3.0,12.0,79,0.00,,---,0.00,VWS V14.00,2013-04-06 00:30:00,
2013-04-05 18:00:00,58.9,52.8,30.18,SW,225,3.0,10.0,80,0.00,,---,0.00,VWS V14.00,2013-04-06 01:00:00,
2013-04-05 18:30:00,56.4,51.6,30.18,SW,225,5.0,16.0,84,0.00,,---,0.00,VWS V14.00,2013-04-06 01:30:00,
2013-04-05 19:00:00,54.4,51.2,30.18,SW,225,2.0,13.0,89,0.00,,---,0.00,VWS V14.00,2013-04-06 02:00:00,
2013-04-05 19:30:00,53.7,51.1,30.16,SSE,158,0.0,4.0,91,0.00,,---,0.00,VWS V14.00,2013-04-06 02:30:00,
2013-04-05 20:00:00,53.0,50.7,30.17,SE,135,1.0,8.0,92,0.00,,---,0.00,VWS V14.00,2013-04-06 03:00:00,
2013-04-05 20:30:00,52.7,51.0,30.17,SE,135,2.0,13.0,94,0.00,,---,0.00,VWS V14.00,2013-04-06 03:30:00,
2013-04-05 21:00:00,52.6,50.9,30.19,SE,135,2.0,11.0,94,0.00,,---,0.00,VWS V14.00,2013-04-06 04:00:00,
2013-04-05 21:30:00,52.7,51.3,30.19,SE,135,2.0,8.0,95,0.00,,---,0.00,VWS V14.00,2013-04-06 04:30:00,
2013-04-05 22:00:00,52.8,51.4,30.21,SE,135,1.0,8.0,95,0.00,,---,0.00,VWS V14.00,2013-04-06 05:00:00,
2013-04-05 22:30:00,52.8,51.7,30.21,SE,135,1.0,8.0,96,0.00,,---,0.00,VWS V14.00,2013-04-06 05:30:00,
2013-04-05 23:00:00,52.4,51.3,30.21,ESE,112,1.0,9.0,96,0.00,,---,0.00,VWS V14.00,2013-04-06 06:00:00,
2013-04-05 23:30:00,52.2,51.1,30.22,ESE,112,1.0,8.0,96,0.00,,---,0.00,VWS V14.00,2013-04-06 06:30:00,